Time;durP1;ratioP1;P1;durP2;ratioP2;P2;SDS_P1;SDS_P2;PMS_P1;PMS_P2;Temp;Humidity;BMP_temperature;BMP_pressure;BME280_temperature;BME280_humidity;BME280_pressure;Samples;Min_cycle;Max_cycle;Signal;HPM_P1;HPM_P2
2023/03/28 00:00:42;;;;;;;;;;;2.00;99.90;;;;;;5001615;28;19905;-78
2023/03/28 00:03:13;;;;;;;;;;;2.00;99.90;;;;;;5003572;28;19913;-78
2023/03/28 00:05:40;;;;;;;;;;;2.10;99.90;;;;;;5003687;28;20003;-78
2023/03/28 00:08:10;;;;;;;;;;;2.00;99.90;;;;;;5003784;28;19912;-78
2023/03/28 00:10:36;;;;;;;;;;;1.90;99.90;;;;;;5005137;28;20294;-78
2023/03/28 00:13:02;;;;;;;;;;;1.90;99.90;;;;;;5004785;28;19916;-78
2023/03/28 00:15:28;;;;;;;;;;;1.90;99.90;;;;;;5003532;28;19909;-78
2023/03/28 00:17:58;;;;;;;;;;;1.90;99.90;;;;;;5005185;28;19949;-78
2023/03/28 00:20:26;;;;;;;;;;;1.90;99.90;;;;;;5005134;28;19960;-78
2023/03/28 00:22:53;;;;;;;;;;;1.90;99.90;;;;;;5012140;28;19913;-79
2023/03/28 00:25:22;;;;;;;;;;;1.80;99.90;;;;;;5006466;28;19956;-78
2023/03/28 00:27:51;;;;;;;;;;;1.90;99.90;;;;;;5005308;28;20499;-78
2023/03/28 00:30:23;;;;;;;;;;;2.00;99.90;;;;;;5008304;28;19905;-78
2023/03/28 00:32:49;;;;;;;;;;;2.00;99.90;;;;;;5005035;28;19909;-79
2023/03/28 00:35:17;;;;;;;;;;;2.00;99.90;;;;;;5002644;28;19957;-78
2023/03/28 00:37:44;;;;;;;;;;;2.00;99.90;;;;;;5004970;28;19905;-78
2023/03/28 00:40:12;;;;;;;;;;;2.00;99.90;;;;;;4998792;28;19909;-78
2023/03/28 00:42:40;;;;;;;;;;;2.00;99.90;;;;;;5000606;28;19999;-78
2023/03/28 00:45:08;;;;;;;;;;;1.90;99.90;;;;;;4999968;28;20354;-78
2023/03/28 00:47:42;;;;;;;;;;;1.90;99.90;;;;;;4983554;28;19940;-78
2023/03/28 00:50:29;;;;;;;;;;;1.90;99.90;;;;;;5001357;28;19945;-78
2023/03/28 00:53:14;;;;;;;;;;;1.90;99.90;;;;;;5005124;28;19913;-79
2023/03/28 00:55:43;;;;;;;;;;;1.90;99.90;;;;;;5004399;28;19906;-79
2023/03/28 00:58:12;;;;;;;;;;;1.90;99.90;;;;;;5000458;28;19905;-78
2023/03/28 01:00:45;;;;;;;;;;;1.90;99.90;;;;;;5003503;28;19905;-78
2023/03/28 01:03:26;;;;;;;;;;;1.80;99.90;;;;;;5004632;28;19921;-78
2023/03/28 01:05:53;;;;;;;;;;;1.90;99.90;;;;;;4998812;28;19940;-78
2023/03/28 01:08:31;;;;;;;;;;;1.90;99.90;;;;;;5005890;28;20000;-80
2023/03/28 01:10:58;;;;;;;;;;;1.90;99.90;;;;;;4983738;28;20358;-78
2023/03/28 01:13:32;;;;;;;;;;;1.90;99.90;;;;;;5001017;28;19996;-77
2023/03/28 01:16:03;;;;;;;;;;;1.80;99.90;;;;;;4999497;28;19905;-78
2023/03/28 01:18:29;;;;;;;;;;;1.80;99.90;;;;;;5000009;28;19906;-80
2023/03/28 01:21:19;;;;;;;;;;;1.80;99.90;;;;;;5001881;28;20055;-79
2023/03/28 01:27:06;;;;;;;;;;;1.80;99.90;;;;;;4997746;28;19967;-78
2023/03/28 01:30:01;;;;;;;;;;;1.80;99.90;;;;;;4994310;28;19948;-79
2023/03/28 01:32:47;;;;;;;;;;;1.80;99.90;;;;;;4987421;28;19913;-79
2023/03/28 01:35:32;;;;;;;;;;;1.80;99.90;;;;;;4990207;28;19906;-78
2023/03/28 01:38:03;;;;;;;;;;;1.70;99.90;;;;;;4996726;28;19928;-78
2023/03/28 01:41:04;;;;;;;;;;;1.80;99.90;;;;;;5002733;28;19909;-79
2023/03/28 01:43:44;;;;;;;;;;;1.80;99.90;;;;;;4917091;29;20324;-78
2023/03/28 01:46:14;;;;;;;;;;;1.80;99.90;;;;;;4974293;28;19916;-78
2023/03/28 01:48:46;;;;;;;;;;;1.80;99.90;;;;;;4995390;28;19909;-78
2023/03/28 01:51:17;;;;;;;;;;;1.70;99.90;;;;;;4999925;28;19909;-79
2023/03/28 01:54:01;;;;;;;;;;;1.70;99.90;;;;;;4982540;28;19905;-78
2023/03/28 01:56:26;;;;;;;;;;;1.70;99.90;;;;;;4999388;28;20558;-78
2023/03/28 01:59:06;;;;;;;;;;;1.70;99.90;;;;;;4987343;28;19906;-78
2023/03/28 02:01:50;;;;;;;;;;;1.70;99.90;;;;;;5000718;28;20606;-79
2023/03/28 02:04:19;;;;;;;;;;;1.70;99.90;;;;;;5004154;28;19939;-78
2023/03/28 02:06:48;;;;;;;;;;;1.60;99.90;;;;;;4998931;28;19916;-78
2023/03/28 02:09:20;;;;;;;;;;;1.70;99.90;;;;;;4998842;28;19905;-80
2023/03/28 02:11:49;;;;;;;;;;;1.60;99.90;;;;;;4999972;28;20344;-78
2023/03/28 02:14:19;;;;;;;;;;;1.60;99.90;;;;;;4999192;28;19910;-78
2023/03/28 02:16:48;;;;;;;;;;;1.60;99.90;;;;;;4983040;28;19913;-79
2023/03/28 02:19:16;;;;;;;;;;;1.60;99.90;;;;;;5000667;28;20059;-80
2023/03/28 02:22:12;;;;;;;;;;;1.60;99.90;;;;;;5003557;28;19913;-80
2023/03/28 02:24:49;;;;;;;;;;;1.70;99.90;;;;;;4907916;29;19911;-78
2023/03/28 02:27:16;;;;;;;;;;;1.60;99.90;;;;;;4918420;29;20296;-78
2023/03/28 02:29:46;;;;;;;;;;;1.60;99.90;;;;;;4973261;28;19910;-78
2023/03/28 02:32:22;;;;;;;;;;;1.60;99.90;;;;;;4999277;28;19909;-78
2023/03/28 02:34:50;;;;;;;;;;;1.50;99.90;;;;;;5002143;28;20536;-79
2023/03/28 02:37:26;;;;;;;;;;;1.50;99.90;;;;;;4997855;28;19909;-78
2023/03/28 02:40:10;;;;;;;;;;;1.50;99.90;;;;;;4995105;28;19980;-78
2023/03/28 02:42:40;;;;;;;;;;;1.40;99.90;;;;;;4999849;28;19920;-78
2023/03/28 02:45:13;;;;;;;;;;;1.50;99.90;;;;;;4981254;28;19912;-78
2023/03/28 02:47:38;;;;;;;;;;;1.50;99.90;;;;;;4982175;28;20373;-78
2023/03/28 02:50:24;;;;;;;;;;;1.50;99.90;;;;;;4982050;28;19905;-78
2023/03/28 02:52:53;;;;;;;;;;;1.50;99.90;;;;;;4986040;28;19905;-78
2023/03/28 02:55:23;;;;;;;;;;;1.50;99.90;;;;;;4981037;28;19905;-77
2023/03/28 02:57:53;;;;;;;;;;;1.50;99.90;;;;;;4982338;28;19993;-78
2023/03/28 03:00:19;;;;;;;;;;;1.50;99.90;;;;;;4998972;28;19910;-79
2023/03/28 03:02:50;;;;;;;;;;;1.60;99.90;;;;;;5001504;28;19920;-79
2023/03/28 03:05:21;;;;;;;;;;;1.50;99.90;;;;;;4999088;28;19917;-79
2023/03/28 03:07:48;;;;;;;;;;;1.50;99.90;;;;;;4999947;28;20000;-78
2023/03/28 03:10:15;;;;;;;;;;;1.50;99.90;;;;;;4999044;28;19906;-79
2023/03/28 03:12:42;;;;;;;;;;;1.50;99.90;;;;;;4996255;28;20351;-78
2023/03/28 03:15:09;;;;;;;;;;;1.60;99.90;;;;;;4999993;28;19980;-79
2023/03/28 03:17:36;;;;;;;;;;;1.60;99.90;;;;;;4996735;28;19909;-78
2023/03/28 03:20:06;;;;;;;;;;;1.60;99.90;;;;;;4993392;28;19906;-79
2023/03/28 03:22:33;;;;;;;;;;;1.60;99.90;;;;;;4993121;28;19925;-78
2023/03/28 03:25:06;;;;;;;;;;;1.50;99.90;;;;;;5003445;28;19905;-78
2023/03/28 03:27:40;;;;;;;;;;;1.50;99.90;;;;;;4999682;28;19994;-78
2023/03/28 03:30:08;;;;;;;;;;;1.50;99.90;;;;;;4996060;28;19905;-78
2023/03/28 03:32:43;;;;;;;;;;;1.40;99.90;;;;;;5003526;28;19911;-78
2023/03/28 03:35:11;;;;;;;;;;;1.50;99.90;;;;;;4995117;28;19906;-79
2023/03/28 03:37:37;;;;;;;;;;;1.50;99.90;;;;;;5002892;28;19905;-78
2023/03/28 03:40:07;;;;;;;;;;;1.50;99.90;;;;;;4999105;28;20265;-80
2023/03/28 03:42:32;;;;;;;;;;;1.50;99.90;;;;;;5003143;28;19916;-78
2023/03/28 03:44:58;;;;;;;;;;;1.40;99.90;;;;;;4995560;28;19905;-79
2023/03/28 03:47:26;;;;;;;;;;;1.50;99.90;;;;;;5006463;28;19913;-80
2023/03/28 03:50:03;;;;;;;;;;;1.50;99.90;;;;;;5004212;28;19910;-79
2023/03/28 03:52:30;;;;;;;;;;;1.50;99.90;;;;;;5002187;28;19909;-79
2023/03/28 03:55:14;;;;;;;;;;;1.50;99.90;;;;;;5002826;28;19913;-81
2023/03/28 03:57:41;;;;;;;;;;;1.50;99.90;;;;;;5001017;28;19916;-78
2023/03/28 04:00:12;;;;;;;;;;;1.50;99.90;;;;;;4998087;28;19913;-80
2023/03/28 04:02:40;;;;;;;;;;;1.60;99.90;;;;;;4997709;28;19909;-78
2023/03/28 04:05:08;;;;;;;;;;;1.60;99.90;;;;;;5001611;28;19913;-78
2023/03/28 04:07:38;;;;;;;;;;;1.60;99.90;;;;;;5004490;28;19912;-79
2023/03/28 04:10:06;;;;;;;;;;;1.60;99.90;;;;;;4996400;28;19916;-79
2023/03/28 04:12:38;;;;;;;;;;;1.60;99.90;;;;;;4998557;28;20006;-77
2023/03/28 04:15:04;;;;;;;;;;;1.60;99.90;;;;;;4990562;28;19910;-77
2023/03/28 04:17:33;;;;;;;;;;;1.60;99.90;;;;;;5002547;28;20252;-77
2023/03/28 04:20:01;;;;;;;;;;;1.60;99.90;;;;;;5001638;28;20268;-77
2023/03/28 04:22:34;;;;;;;;;;;1.60;99.90;;;;;;5007038;28;19921;-77
2023/03/28 04:25:00;;;;;;;;;;;1.60;99.90;;;;;;5002710;28;19984;-77
2023/03/28 04:27:30;;;;;;;;;;;1.60;99.90;;;;;;5005622;28;20414;-76
2023/03/28 04:29:59;;;;;;;;;;;1.50;99.90;;;;;;5004773;28;19996;-78
2023/03/28 04:32:28;;;;;;;;;;;1.70;99.90;;;;;;5002048;28;19913;-78
2023/03/28 04:34:54;;;;;;;;;;;1.60;99.90;;;;;;5000903;28;21792;-78
2023/03/28 04:37:20;;;;;;;;;;;1.60;99.90;;;;;;5007460;28;19955;-78
2023/03/28 04:39:47;;;;;;;;;;;1.50;99.90;;;;;;4998714;28;19992;-77
2023/03/28 04:42:16;;;;;;;;;;;1.50;99.90;;;;;;5006258;28;19909;-81
2023/03/28 04:44:45;;;;;;;;;;;1.50;99.90;;;;;;4997213;28;20613;-78
2023/03/28 04:47:11;;;;;;;;;;;1.50;99.90;;;;;;5001661;28;19906;-76
2023/03/28 04:49:38;;;;;;;;;;;1.50;99.90;;;;;;4999557;28;20980;-78
2023/03/28 04:52:04;;;;;;;;;;;1.60;99.90;;;;;;5006423;28;19987;-78
2023/03/28 04:54:31;;;;;;;;;;;1.60;99.90;;;;;;5002651;28;19912;-80
2023/03/28 04:56:59;;;;;;;;;;;1.60;99.90;;;;;;5002284;28;19913;-78
2023/03/28 04:59:25;;;;;;;;;;;1.70;99.90;;;;;;5001041;28;20107;-77
2023/03/28 05:01:54;;;;;;;;;;;1.70;99.90;;;;;;5001136;28;19910;-78
2023/03/28 05:04:21;;;;;;;;;;;1.80;99.90;;;;;;5001750;28;19905;-78
2023/03/28 05:06:47;;;;;;;;;;;1.80;99.90;;;;;;5000010;28;20383;-79
2023/03/28 05:09:16;;;;;;;;;;;2.10;99.90;;;;;;4998479;28;19909;-78
2023/03/28 05:11:43;;;;;;;;;;;2.30;99.90;;;;;;5001970;28;19964;-79
2023/03/28 05:14:10;;;;;;;;;;;2.80;99.90;;;;;;4999052;28;19905;-78
2023/03/28 05:16:35;;;;;;;;;;;3.90;99.90;;;;;;5003438;28;20016;-78
2023/03/28 05:19:03;;;;;;;;;;;5.00;99.90;;;;;;4999824;28;20004;-78
2023/03/28 05:21:35;;;;;;;;;;;5.90;99.90;;;;;;4997076;28;19913;-77
2023/03/28 05:24:02;;;;;;;;;;;5.90;99.90;;;;;;5004833;28;19906;-78
2023/03/28 05:26:31;;;;;;;;;;;5.60;99.90;;;;;;5004827;28;19905;-77
2023/03/28 05:28:57;;;;;;;;;;;5.60;99.90;;;;;;4998006;28;19940;-79
2023/03/28 05:31:24;;;;;;;;;;;6.80;99.90;;;;;;5001816;28;19952;-77
2023/03/28 05:34:28;;;;;;;;;;;8.30;98.00;;;;;;5003834;28;19981;-78
2023/03/28 05:36:56;;;;;;;;;;;9.30;94.10;;;;;;4982800;28;20541;-78
2023/03/28 05:39:23;;;;;;;;;;;10.80;89.20;;;;;;4995566;28;20004;-79
2023/03/28 05:41:58;;;;;;;;;;;11.50;83.60;;;;;;5000191;28;20321;-78
2023/03/28 05:44:24;;;;;;;;;;;12.60;76.20;;;;;;4996357;28;20002;-78
2023/03/28 05:46:52;;;;;;;;;;;13.60;73.20;;;;;;5004863;28;19906;-78
2023/03/28 05:49:23;;;;;;;;;;;13.20;69.40;;;;;;5004966;28;19967;-78
2023/03/28 05:51:51;;;;;;;;;;;11.80;70.30;;;;;;5000756;28;19906;-78
2023/03/28 05:54:33;;;;;;;;;;;10.40;72.70;;;;;;4999894;28;19952;-77
2023/03/28 05:56:59;;;;;;;;;;;9.60;76.80;;;;;;5003762;28;19917;-77
2023/03/28 05:59:45;;;;;;;;;;;9.60;78.50;;;;;;4999032;28;19913;-77
2023/03/28 06:02:21;;;;;;;;;;;9.00;80.50;;;;;;5001020;28;19914;-77
2023/03/28 06:04:47;;;;;;;;;;;8.10;84.20;;;;;;5002906;28;19948;-77
2023/03/28 06:07:18;;;;;;;;;;;7.30;89.50;;;;;;4998957;28;19944;-77
2023/03/28 06:09:45;;;;;;;;;;;6.90;91.60;;;;;;5000091;28;19906;-78
2023/03/28 06:12:25;;;;;;;;;;;6.70;93.40;;;;;;5004573;28;19996;-77
2023/03/28 06:14:51;;;;;;;;;;;6.70;94.50;;;;;;4995641;28;19960;-78
2023/03/28 06:17:17;;;;;;;;;;;8.30;93.10;;;;;;5003512;28;19909;-77
2023/03/28 06:19:43;;;;;;;;;;;11.20;83.30;;;;;;4999986;28;19912;-77
2023/03/28 06:22:13;;;;;;;;;;;14.00;72.10;;;;;;4998406;28;19913;-77
2023/03/28 06:24:48;;;;;;;;;;;16.10;62.90;;;;;;5004113;28;19905;-77
2023/03/28 06:27:14;;;;;;;;;;;17.50;57.50;;;;;;4984489;28;19952;-78
2023/03/28 06:29:40;;;;;;;;;;;18.60;53.60;;;;;;4998037;28;20556;-77
2023/03/28 06:32:18;;;;;;;;;;;19.00;51.00;;;;;;4982087;28;19987;-77
2023/03/28 06:34:47;;;;;;;;;;;20.30;48.60;;;;;;4997728;28;19981;-78
2023/03/28 06:37:14;;;;;;;;;;;21.10;46.50;;;;;;4986416;28;19912;-78
2023/03/28 06:39:40;;;;;;;;;;;21.60;45.40;;;;;;4999765;28;19909;-78
2023/03/28 06:42:07;;;;;;;;;;;22.40;43.70;;;;;;4999716;28;19921;-77
2023/03/28 06:44:32;;;;;;;;;;;22.10;42.30;;;;;;4987038;28;19906;-77
2023/03/28 06:47:03;;;;;;;;;;;22.60;42.20;;;;;;4998266;28;19911;-78
2023/03/28 06:49:33;;;;;;;;;;;21.60;41.90;;;;;;4999853;28;19905;-77
2023/03/28 06:51:59;;;;;;;;;;;18.60;43.90;;;;;;5000210;28;19912;-78
2023/03/28 06:54:25;;;;;;;;;;;18.10;46.20;;;;;;4997568;28;19921;-77
2023/03/28 06:56:52;;;;;;;;;;;19.50;45.30;;;;;;5003716;28;19909;-77
2023/03/28 06:59:19;;;;;;;;;;;19.40;43.80;;;;;;4977497;28;19959;-77
2023/03/28 07:01:46;;;;;;;;;;;20.60;43.60;;;;;;5002022;28;20000;-77
2023/03/28 07:04:27;;;;;;;;;;;20.80;43.20;;;;;;4980929;28;19953;-77
2023/03/28 07:06:56;;;;;;;;;;;21.60;42.80;;;;;;4994696;28;19924;-77
2023/03/28 07:09:22;;;;;;;;;;;21.00;42.60;;;;;;4986040;28;19905;-78
2023/03/28 07:11:49;;;;;;;;;;;20.00;43.80;;;;;;4993351;28;19909;-77
2023/03/28 07:14:15;;;;;;;;;;;18.00;45.20;;;;;;5003065;28;20259;-76
2023/03/28 07:16:44;;;;;;;;;;;16.00;47.80;;;;;;4998219;28;19905;-77
2023/03/28 07:19:13;;;;;;;;;;;14.80;49.70;;;;;;4994025;28;19905;-76
2023/03/28 07:21:40;;;;;;;;;;;13.20;52.80;;;;;;4985864;28;19996;-76
2023/03/28 07:24:05;;;;;;;;;;;13.90;53.90;;;;;;4999040;28;19928;-76
2023/03/28 07:26:33;;;;;;;;;;;14.90;52.70;;;;;;4999025;28;20370;-77
2023/03/28 07:29:02;;;;;;;;;;;15.70;50.20;;;;;;4998992;28;19905;-77
2023/03/28 07:31:28;;;;;;;;;;;18.50;48.00;;;;;;5003359;28;19905;-77
2023/03/28 07:33:57;;;;;;;;;;;20.50;44.60;;;;;;4998830;28;19913;-77
2023/03/28 07:36:25;;;;;;;;;;;21.80;43.70;;;;;;4997749;28;20406;-76
2023/03/28 07:39:03;;;;;;;;;;;19.50;43.90;;;;;;4997224;28;19905;-77
2023/03/28 07:41:31;;;;;;;;;;;17.60;45.40;;;;;;4987200;28;19901;-76
2023/03/28 07:43:59;;;;;;;;;;;17.30;46.70;;;;;;4995166;28;20350;-76
2023/03/28 07:46:24;;;;;;;;;;;20.20;45.40;;;;;;5003472;28;19914;-76
2023/03/28 07:48:55;;;;;;;;;;;19.40;44.10;;;;;;4997598;28;19905;-76
2023/03/28 07:51:33;;;;;;;;;;;17.50;45.70;;;;;;5006669;28;19909;-76
2023/03/28 07:54:03;;;;;;;;;;;15.70;47.50;;;;;;5002953;28;20266;-76
2023/03/28 07:56:30;;;;;;;;;;;15.50;47.80;;;;;;5005158;28;20278;-76
2023/03/28 07:59:04;;;;;;;;;;;14.20;49.40;;;;;;5001386;28;19913;-77
2023/03/28 08:01:30;;;;;;;;;;;12.80;51.40;;;;;;5006555;28;20355;-76
2023/03/28 08:04:11;;;;;;;;;;;11.40;56.20;;;;;;4998193;28;19963;-76
2023/03/28 08:06:51;;;;;;;;;;;10.00;59.50;;;;;;4997161;28;19921;-76
2023/03/28 08:09:17;;;;;;;;;;;9.40;61.80;;;;;;4999899;28;19914;-76
2023/03/28 08:11:43;;;;;;;;;;;9.00;61.90;;;;;;5001283;28;19909;-78
2023/03/28 08:14:10;;;;;;;;;;;8.50;63.00;;;;;;5000618;28;20347;-78
2023/03/28 08:16:36;;;;;;;;;;;7.90;64.70;;;;;;5001353;28;20419;-78
2023/03/28 08:19:03;;;;;;;;;;;7.60;67.80;;;;;;5001798;28;20027;-78
2023/03/28 08:21:34;;;;;;;;;;;7.30;69.80;;;;;;5002076;28;20321;-78
2023/03/28 08:24:04;;;;;;;;;;;7.00;70.40;;;;;;5001121;28;19909;-78
2023/03/28 08:26:33;;;;;;;;;;;6.70;72.90;;;;;;4998588;28;19929;-78
2023/03/28 08:28:59;;;;;;;;;;;6.60;73.40;;;;;;5001708;28;19905;-78
2023/03/28 08:31:27;;;;;;;;;;;6.50;74.90;;;;;;5002556;28;21253;-78
2023/03/28 08:33:54;;;;;;;;;;;6.40;77.10;;;;;;5004044;28;19909;-78
2023/03/28 08:36:25;;;;;;;;;;;6.90;79.40;;;;;;5001871;28;20355;-78
2023/03/28 08:38:59;;;;;;;;;;;7.00;78.10;;;;;;5001462;28;20581;-78
2023/03/28 08:41:43;;;;;;;;;;;7.00;78.60;;;;;;5000096;28;19963;-78
2023/03/28 08:44:48;;;;;;;;;;;9.00;77.80;;;;;;4995205;28;20398;-76
2023/03/28 08:47:14;;;;;;;;;;;13.30;61.40;;;;;;4983395;28;19905;-76
2023/03/28 08:49:52;;;;;;;;;;;16.90;51.50;;;;;;5002140;28;19905;-76
2023/03/28 08:52:25;;;;;;;;;;;16.80;47.90;;;;;;5002115;28;19909;-76
2023/03/28 08:54:53;;;;;;;;;;;16.50;48.90;;;;;;4999788;28;19905;-76
2023/03/28 08:57:24;;;;;;;;;;;17.10;47.20;;;;;;5001725;28;19912;-77
2023/03/28 09:00:18;;;;;;;;;;;14.90;47.90;;;;;;5000552;28;19973;-76
2023/03/28 09:02:44;;;;;;;;;;;13.80;49.70;;;;;;4999323;28;20392;-78
2023/03/28 09:05:27;;;;;;;;;;;12.00;51.80;;;;;;4999372;28;19917;-78
2023/03/28 09:08:05;;;;;;;;;;;10.50;54.20;;;;;;4997119;28;19917;-78
2023/03/28 09:10:52;;;;;;;;;;;9.40;56.20;;;;;;5006071;28;19988;-78
2023/03/28 09:13:41;;;;;;;;;;;8.50;58.60;;;;;;4999804;28;19906;-78
2023/03/28 09:16:07;;;;;;;;;;;7.80;60.60;;;;;;5002573;28;19905;-78
2023/03/28 09:18:53;;;;;;;;;;;8.00;61.20;;;;;;5002185;28;19912;-78
2023/03/28 09:21:43;;;;;;;;;;;8.00;61.20;;;;;;5000246;28;19909;-78
2023/03/28 09:24:14;;;;;;;;;;;7.60;61.30;;;;;;4989952;28;20067;-78
2023/03/28 09:26:51;;;;;;;;;;;8.10;60.80;;;;;;4999984;28;19905;-78
2023/03/28 09:29:24;;;;;;;;;;;11.30;56.90;;;;;;4999072;28;19916;-76
2023/03/28 09:32:10;;;;;;;;;;;15.10;51.30;;;;;;4982917;28;19912;-79
2023/03/28 09:34:43;;;;;;;;;;;17.40;47.10;;;;;;4996983;28;19917;-78
2023/03/28 09:37:28;;;;;;;;;;;16.50;46.90;;;;;;4983120;28;19909;-77
2023/03/28 09:40:00;;;;;;;;;;;19.20;45.70;;;;;;4999432;28;19913;-78
2023/03/28 09:42:46;;;;;;;;;;;20.90;42.90;;;;;;5000996;28;19956;-78
2023/03/28 09:45:44;;;;;;;;;;;18.20;44.00;;;;;;4995508;28;19909;-78
2023/03/28 09:51:02;;;;;;;;;;;12.20;55.70;;;;;;4993661;28;19933;-77
2023/03/28 09:54:02;;;;;;;;;;;11.00;58.60;;;;;;4999745;28;19992;-75
2023/03/28 09:57:05;;;;;;;;;;;12.10;58.00;;;;;;4999973;28;19909;-75
2023/03/28 10:02:55;;;;;;;;;;;10.60;59.70;;;;;;4949820;28;20359;-75
2023/03/28 10:05:38;;;;;;;;;;;10.40;60.50;;;;;;4997177;28;19951;-77
2023/03/28 10:08:19;;;;;;;;;;;10.20;58.60;;;;;;4999789;28;20036;-78
2023/03/28 10:11:08;;;;;;;;;;;9.00;59.80;;;;;;4998214;28;19912;-78
2023/03/28 10:13:43;;;;;;;;;;;8.90;60.90;;;;;;4969153;28;19906;-79
2023/03/28 10:16:12;;;;;;;;;;;9.80;60.30;;;;;;4986208;28;19906;-79
2023/03/28 10:18:39;;;;;;;;;;;9.90;58.90;;;;;;5001762;28;19972;-78
2023/03/28 10:21:10;;;;;;;;;;;8.70;58.10;;;;;;4999217;28;19956;-76
2023/03/28 10:23:38;;;;;;;;;;;7.70;58.20;;;;;;4992070;28;19996;-76
2023/03/28 10:26:11;;;;;;;;;;;7.30;59.90;;;;;;5001632;28;19931;-76
2023/03/28 10:28:42;;;;;;;;;;;7.70;59.90;;;;;;4996692;28;19984;-76
2023/03/28 10:31:27;;;;;;;;;;;10.00;57.70;;;;;;4999617;28;19956;-78
2023/03/28 10:34:03;;;;;;;;;;;13.60;52.90;;;;;;4998994;28;19971;-78
2023/03/28 10:36:40;;;;;;;;;;;16.50;48.90;;;;;;4982363;28;19983;-79
2023/03/28 10:39:21;;;;;;;;;;;18.70;45.30;;;;;;4994457;28;20351;-78
2023/03/28 10:42:01;;;;;;;;;;;19.60;43.10;;;;;;4996429;28;19909;-78
2023/03/28 10:44:29;;;;;;;;;;;20.20;42.10;;;;;;4997490;28;20004;-79
2023/03/28 10:47:02;;;;;;;;;;;21.20;41.80;;;;;;5002452;28;20042;-79
2023/03/28 10:49:32;;;;;;;;;;;20.90;40.40;;;;;;5001727;28;19960;-79
2023/03/28 10:51:57;;;;;;;;;;;19.00;42.20;;;;;;5002855;28;19932;-79
2023/03/28 10:54:29;;;;;;;;;;;19.50;42.00;;;;;;4993015;28;19931;-79
2023/03/28 10:56:55;;;;;;;;;;;20.90;41.20;;;;;;5002638;28;20571;-79
2023/03/28 10:59:26;;;;;;;;;;;19.60;41.50;;;;;;4985137;28;19992;-79
2023/03/28 11:02:05;;;;;;;;;;;17.60;43.00;;;;;;4981053;28;19913;-79
2023/03/28 11:04:56;;;;;;;;;;;15.20;45.50;;;;;;5003740;28;19905;-79
2023/03/28 11:07:41;;;;;;;;;;;13.70;48.30;;;;;;4981865;28;19913;-79
2023/03/28 11:10:28;;;;;;;;;;;12.70;50.80;;;;;;5001948;28;19911;-79
2023/03/28 11:13:13;;;;;;;;;;;12.30;51.90;;;;;;4998456;28;19969;-79
2023/03/28 11:15:50;;;;;;;;;;;12.20;54.10;;;;;;4986719;28;19905;-79
2023/03/28 11:18:25;;;;;;;;;;;12.10;54.80;;;;;;5001960;28;20258;-78
2023/03/28 11:21:13;;;;;;;;;;;11.50;55.80;;;;;;4980942;28;20298;-79
2023/03/28 11:23:47;;;;;;;;;;;11.40;57.50;;;;;;4996813;28;19932;-76
2023/03/28 11:29:22;;;;;;;;;;;10.60;58.20;;;;;;4960982;28;20374;-79
2023/03/28 11:35:14;;;;;;;;;;;10.10;60.20;;;;;;4998124;28;19912;-79
2023/03/28 11:40:51;;;;;;;;;;;9.70;62.50;;;;;;4998717;28;19915;-78
2023/03/28 11:43:27;;;;;;;;;;;8.80;67.10;;;;;;4985944;28;19910;-79
2023/03/28 11:45:55;;;;;;;;;;;8.20;70.10;;;;;;4982131;28;19916;-78
2023/03/28 11:48:39;;;;;;;;;;;7.50;75.60;;;;;;4998575;28;19905;-79
2023/03/28 11:54:12;;;;;;;;;;;6.80;92.70;;;;;;4997624;28;20366;-79
2023/03/28 11:56:45;;;;;;;;;;;6.70;95.60;;;;;;4981364;28;19905;-78
2023/03/28 12:02:25;;;;;;;;;;;7.80;97.30;;;;;;4999051;28;20328;-78
2023/03/28 12:05:11;;;;;;;;;;;8.50;95.20;;;;;;4960683;28;20428;-79
2023/03/28 12:07:45;;;;;;;;;;;8.50;92.60;;;;;;4980995;28;19913;-79
2023/03/28 12:13:20;;;;;;;;;;;9.00;90.20;;;;;;4999030;28;19985;-79
2023/03/28 12:15:50;;;;;;;;;;;8.70;83.80;;;;;;4996032;28;19905;-79
2023/03/28 12:18:40;;;;;;;;;;;8.50;79.90;;;;;;5000141;28;19905;-78
2023/03/28 12:21:12;;;;;;;;;;;8.40;79.30;;;;;;4998592;28;19968;-77
2023/03/28 12:23:49;;;;;;;;;;;8.50;76.20;;;;;;4995016;28;20007;-77
2023/03/28 12:26:39;;;;;;;;;;;8.70;72.90;;;;;;4997421;28;19910;-77
2023/03/28 12:29:24;;;;;;;;;;;8.80;71.30;;;;;;4981574;28;20611;-79
2023/03/28 12:31:52;;;;;;;;;;;8.70;69.70;;;;;;4998776;28;20015;-78
2023/03/28 12:34:41;;;;;;;;;;;8.60;68.30;;;;;;4999663;28;20609;-77
2023/03/28 12:40:18;;;;;;;;;;;9.20;64.50;;;;;;5000851;28;19963;-77
2023/03/28 12:42:45;;;;;;;;;;;9.00;62.60;;;;;;4999194;28;19913;-78
2023/03/28 12:45:28;;;;;;;;;;;8.90;63.40;;;;;;5005104;28;19917;-77
2023/03/28 12:48:01;;;;;;;;;;;8.70;62.80;;;;;;5002716;28;19952;-77
2023/03/28 12:50:35;;;;;;;;;;;8.40;66.50;;;;;;5001550;28;19964;-77
2023/03/28 12:53:02;;;;;;;;;;;8.20;69.40;;;;;;4997440;28;19964;-77
2023/03/28 12:55:30;;;;;;;;;;;8.20;69.70;;;;;;4997815;28;19905;-77
2023/03/28 12:58:12;;;;;;;;;;;8.10;66.80;;;;;;5002663;28;19913;-77
2023/03/28 13:00:38;;;;;;;;;;;8.10;63.50;;;;;;4998227;28;19905;-77
2023/03/28 13:03:07;;;;;;;;;;;8.10;64.10;;;;;;4998916;28;19916;-77
2023/03/28 13:05:48;;;;;;;;;;;8.10;62.80;;;;;;4998394;28;19914;-77
2023/03/28 13:08:15;;;;;;;;;;;8.10;61.10;;;;;;4999258;28;19914;-78
2023/03/28 13:11:00;;;;;;;;;;;7.80;59.50;;;;;;5001211;28;19913;-77
2023/03/28 13:13:45;;;;;;;;;;;7.70;58.90;;;;;;4994911;28;19996;-77
2023/03/28 13:16:25;;;;;;;;;;;7.70;59.60;;;;;;4997887;28;19906;-77
2023/03/28 13:19:05;;;;;;;;;;;7.90;58.40;;;;;;4983270;28;19913;-77
2023/03/28 13:21:56;;;;;;;;;;;8.50;58.20;;;;;;4999823;28;19996;-77
2023/03/28 13:24:25;;;;;;;;;;;9.00;57.30;;;;;;4982675;28;19905;-76
2023/03/28 13:26:54;;;;;;;;;;;9.00;55.90;;;;;;4983334;28;19905;-77
2023/03/28 13:29:19;;;;;;;;;;;8.70;55.00;;;;;;5000659;28;19906;-77
2023/03/28 13:31:46;;;;;;;;;;;8.50;54.80;;;;;;4999191;28;19912;-78
2023/03/28 13:34:19;;;;;;;;;;;8.30;54.80;;;;;;5002907;28;20047;-77
2023/03/28 13:36:53;;;;;;;;;;;8.30;55.10;;;;;;5000710;28;20275;-77
2023/03/28 13:39:26;;;;;;;;;;;8.30;57.50;;;;;;4999026;28;20406;-77
2023/03/28 13:41:55;;;;;;;;;;;8.30;60.30;;;;;;4984786;28;20009;-77
2023/03/28 13:44:43;;;;;;;;;;;8.30;61.40;;;;;;4996556;28;19912;-78
2023/03/28 13:47:15;;;;;;;;;;;8.30;61.40;;;;;;4997424;28;20543;-78
2023/03/28 13:49:44;;;;;;;;;;;8.50;61.20;;;;;;5002385;28;19916;-77
2023/03/28 13:52:14;;;;;;;;;;;8.80;60.20;;;;;;4998543;28;20471;-77
2023/03/28 13:54:39;;;;;;;;;;;8.90;59.60;;;;;;4996824;28;20013;-77
2023/03/28 13:57:13;;;;;;;;;;;8.90;59.70;;;;;;4996970;28;19909;-77
2023/03/28 13:59:47;;;;;;;;;;;8.90;58.90;;;;;;4994971;28;19905;-77
2023/03/28 14:02:19;;;;;;;;;;;8.80;58.70;;;;;;5000826;28;20004;-77
2023/03/28 14:04:54;;;;;;;;;;;8.80;58.30;;;;;;4981532;28;19910;-77
2023/03/28 14:07:29;;;;;;;;;;;8.90;58.00;;;;;;4998640;28;20903;-77
2023/03/28 14:09:58;;;;;;;;;;;8.80;58.60;;;;;;4985763;28;19913;-77
2023/03/28 14:12:27;;;;;;;;;;;8.70;58.70;;;;;;4999659;28;19920;-77
2023/03/28 14:14:56;;;;;;;;;;;8.90;58.70;;;;;;5002760;28;19909;-77
2023/03/28 14:17:31;;;;;;;;;;;9.00;58.00;;;;;;4999439;28;20117;-77
2023/03/28 14:20:00;;;;;;;;;;;9.10;57.80;;;;;;4994126;28;20570;-77
2023/03/28 14:22:29;;;;;;;;;;;8.90;57.40;;;;;;4998721;28;19917;-77
2023/03/28 14:25:12;;;;;;;;;;;8.90;57.60;;;;;;4993485;28;19920;-77
2023/03/28 14:27:44;;;;;;;;;;;8.90;58.00;;;;;;5000033;28;19960;-77
2023/03/28 14:30:28;;;;;;;;;;;9.10;58.20;;;;;;4995558;28;19997;-77
2023/03/28 14:32:59;;;;;;;;;;;9.30;57.20;;;;;;4995177;28;20051;-77
2023/03/28 14:35:29;;;;;;;;;;;9.20;57.30;;;;;;4981518;28;19914;-77
2023/03/28 14:37:59;;;;;;;;;;;9.20;55.30;;;;;;4998315;28;20570;-76
2023/03/28 14:40:36;;;;;;;;;;;9.10;55.30;;;;;;4999032;28;19920;-77
2023/03/28 14:43:12;;;;;;;;;;;9.10;55.00;;;;;;4997351;28;20474;-77
2023/03/28 14:45:50;;;;;;;;;;;9.00;55.00;;;;;;4995370;28;19975;-76
2023/03/28 14:48:22;;;;;;;;;;;8.90;54.80;;;;;;4999615;28;19962;-77
2023/03/28 14:50:49;;;;;;;;;;;8.80;54.30;;;;;;5000495;28;19906;-78
2023/03/28 14:53:52;;;;;;;;;;;9.00;64.00;;;;;;4981931;28;19909;-76
2023/03/28 14:56:48;;;;;;;;;;;9.20;63.30;;;;;;4982841;28;19960;-79
2023/03/28 14:59:17;;;;;;;;;;;9.20;54.30;;;;;;4993720;28;19997;-77
2023/03/28 15:01:45;;;;;;;;;;;8.90;55.40;;;;;;4998660;28;19909;-77
2023/03/28 15:04:19;;;;;;;;;;;8.90;56.90;;;;;;4998881;28;20380;-78
2023/03/28 15:06:51;;;;;;;;;;;9.00;57.70;;;;;;4976317;28;19917;-77
2023/03/28 15:09:26;;;;;;;;;;;8.80;56.50;;;;;;4997731;28;19992;-77
2023/03/28 15:11:54;;;;;;;;;;;8.60;55.30;;;;;;4999270;28;19909;-78
2023/03/28 15:14:42;;;;;;;;;;;8.40;54.40;;;;;;4999029;28;19952;-78
2023/03/28 15:17:21;;;;;;;;;;;8.20;54.30;;;;;;4981854;28;19912;-77
2023/03/28 15:19:54;;;;;;;;;;;8.20;54.40;;;;;;4998132;28;19912;-77
2023/03/28 15:22:25;;;;;;;;;;;8.10;54.30;;;;;;4999403;28;19916;-77
2023/03/28 15:24:53;;;;;;;;;;;8.10;53.90;;;;;;5001150;28;19913;-79
2023/03/28 15:27:30;;;;;;;;;;;8.10;53.60;;;;;;4999408;28;19909;-79
2023/03/28 15:29:57;;;;;;;;;;;7.90;53.80;;;;;;4999186;28;19967;-78